Time;durP1;ratioP1;P1;durP2;ratioP2;P2;SDS_P1;SDS_P2;PMS_P1;PMS_P2;Temp;Humidity;BMP_temperature;BMP_pressure;BME280_temperature;BME280_humidity;BME280_pressure;Samples;Min_cycle;Max_cycle;Signal;HPM_P1;HPM_P2
2023/06/05 00:01:06;;;;;;;5.72;1.38;;;17.10;85.50;;;;;;5000443;28;20072;-69
2023/06/05 00:03:32;;;;;;;2.60;1.08;;;17.10;85.20;;;;;;5000840;28;20019;-69
2023/06/05 00:05:57;;;;;;;3.50;1.30;;;17.00;85.20;;;;;;5000525;28;20033;-69
2023/06/05 00:08:23;;;;;;;2.03;1.20;;;17.00;86.10;;;;;;5000605;28;20076;-70
2023/06/05 00:10:48;;;;;;;4.05;1.73;;;16.80;85.70;;;;;;5000746;28;20030;-69
2023/06/05 00:13:14;;;;;;;5.15;1.27;;;16.60;86.30;;;;;;5000735;28;20035;-69
2023/06/05 00:15:40;;;;;;;2.80;1.38;;;16.60;86.80;;;;;;5001042;28;20125;-69
2023/06/05 00:18:05;;;;;;;2.08;1.52;;;16.60;86.80;;;;;;5000466;28;20113;-69
2023/06/05 00:20:31;;;;;;;1.50;1.10;;;16.50;87.00;;;;;;5000399;28;20064;-69
2023/06/05 00:22:56;;;;;;;11.20;1.67;;;16.50;88.10;;;;;;5000355;28;20105;-69
2023/06/05 00:25:22;;;;;;;1.83;1.30;;;16.40;87.90;;;;;;5000305;28;20022;-69
2023/06/05 00:27:47;;;;;;;3.08;1.23;;;16.30;88.30;;;;;;5000423;28;20029;-69
2023/06/05 00:30:13;;;;;;;2.47;1.17;;;16.30;88.90;;;;;;5001068;28;20030;-69
2023/06/05 00:32:39;;;;;;;5.05;1.48;;;16.30;89.20;;;;;;5000256;28;20022;-69
2023/06/05 00:35:07;;;;;;;2.60;1.63;;;16.30;88.90;;;;;;5024119;22;20046;-68
2023/06/05 00:37:33;;;;;;;2.42;1.35;;;16.30;89.70;;;;;;5000232;28;20056;-68
2023/06/05 00:40:00;;;;;;;4.95;1.25;;;16.40;88.50;;;;;;4999827;28;20089;-68
2023/06/05 00:42:28;;;;;;;7.38;1.60;;;16.20;89.50;;;;;;5000150;28;20093;-68
2023/06/05 00:44:54;;;;;;;3.92;1.42;;;16.20;89.20;;;;;;5001258;28;20022;-68
2023/06/05 00:47:20;;;;;;;7.32;1.38;;;16.20;90.20;;;;;;4999679;28;20030;-68
2023/06/05 00:49:46;;;;;;;3.50;1.25;;;16.20;89.60;;;;;;4999664;28;20026;-68
2023/06/05 00:52:12;;;;;;;2.08;1.13;;;16.20;90.00;;;;;;5000460;28;20030;-68
2023/06/05 00:54:39;;;;;;;3.60;0.90;;;16.20;90.20;;;;;;4999612;28;20033;-68
2023/06/05 00:57:07;;;;;;;3.22;1.10;;;16.10;90.30;;;;;;4999465;28;20142;-68
2023/06/05 00:59:34;;;;;;;3.78;1.35;;;16.10;90.20;;;;;;4999437;28;20030;-68
2023/06/05 01:02:02;;;;;;;2.20;1.17;;;16.10;90.30;;;;;;4999263;28;20080;-68
2023/06/05 01:04:32;;;;;;;3.05;1.23;;;16.10;90.70;;;;;;4999317;28;20027;-68
2023/06/05 01:06:59;;;;;;;2.67;1.60;;;16.00;90.50;;;;;;5000579;28;20031;-68
2023/06/05 01:09:25;;;;;;;2.15;1.35;;;16.10;90.60;;;;;;4998896;28;20027;-68
2023/06/05 01:11:58;;;;;;;1.98;1.30;;;16.10;90.70;;;;;;4999749;28;20033;-68
2023/06/05 01:14:27;;;;;;;3.30;1.40;;;16.10;90.90;;;;;;4999446;28;20121;-68
2023/06/05 01:16:53;;;;;;;1.75;1.08;;;16.00;91.30;;;;;;5000252;28;20023;-68
2023/06/05 01:19:21;;;;;;;1.35;1.00;;;15.80;91.20;;;;;;4999386;28;20125;-68
2023/06/05 01:21:47;;;;;;;2.28;1.17;;;15.70;91.20;;;;;;4999780;28;20026;-68
2023/06/05 01:24:15;;;;;;;3.35;1.23;;;15.60;91.60;;;;;;4999927;28;20031;-68
2023/06/05 01:27:09;;;;;;;2.47;1.35;;;15.60;91.60;;;;;;4999955;28;20097;-68
2023/06/05 01:29:48;;;;;;;4.25;1.50;;;15.60;91.90;;;;;;5000099;28;20022;-68
2023/06/05 01:32:29;;;;;;;2.30;1.15;;;15.70;92.00;;;;;;4999677;28;20026;-68
2023/06/05 01:34:55;;;;;;;3.28;1.48;;;15.50;92.40;;;;;;4999146;28;20111;-68
2023/06/05 01:37:24;;;;;;;1.23;1.05;;;15.60;92.10;;;;;;4999255;28;20069;-68
2023/06/05 01:39:51;;;;;;;2.03;1.20;;;15.70;92.60;;;;;;5000332;28;20029;-69
2023/06/05 01:42:17;;;;;;;2.30;1.10;;;15.70;92.50;;;;;;4999516;28;20038;-69
2023/06/05 01:44:44;;;;;;;2.05;1.27;;;15.70;92.50;;;;;;4999178;28;20033;-69
2023/06/05 01:47:10;;;;;;;1.20;0.88;;;15.70;92.90;;;;;;4999732;28;20090;-69
2023/06/05 01:49:36;;;;;;;1.70;1.00;;;15.70;92.50;;;;;;4998569;28;20022;-69
2023/06/05 01:52:02;;;;;;;1.90;1.30;;;15.60;92.50;;;;;;4998919;28;20086;-69
2023/06/05 01:54:28;;;;;;;1.88;1.33;;;15.70;92.60;;;;;;4999161;28;20034;-69
2023/06/05 01:56:55;;;;;;;3.72;1.35;;;15.60;92.60;;;;;;4999376;28;20022;-69
2023/06/05 01:59:21;;;;;;;2.30;1.20;;;15.50;92.80;;;;;;4998259;28;20030;-69
2023/06/05 02:01:47;;;;;;;2.28;1.35;;;15.50;93.00;;;;;;4998381;28;20035;-69
2023/06/05 02:04:18;;;;;;;2.38;1.10;;;15.50;93.40;;;;;;4999044;28;20028;-69
2023/06/05 02:06:44;;;;;;;2.10;1.35;;;15.40;93.30;;;;;;4999140;28;20033;-69
2023/06/05 02:09:10;;;;;;;5.65;1.77;;;15.50;93.40;;;;;;4998509;28;20030;-69
2023/06/05 02:11:37;;;;;;;5.78;1.40;;;15.40;93.60;;;;;;4998099;28;20049;-69
2023/06/05 02:14:04;;;;;;;2.65;1.00;;;15.40;94.20;;;;;;4998866;28;20022;-69
2023/06/05 02:16:30;;;;;;;1.88;1.23;;;15.40;93.90;;;;;;4998905;28;20026;-69
2023/06/05 02:19:03;;;;;;;2.03;1.10;;;15.30;94.10;;;;;;4998096;28;20028;-69
2023/06/05 02:21:30;;;;;;;1.48;1.10;;;15.40;94.60;;;;;;4998448;28;20030;-69
2023/06/05 02:23:57;;;;;;;2.95;1.20;;;15.30;94.70;;;;;;4998900;28;20033;-69
2023/06/05 02:26:23;;;;;;;10.93;1.55;;;15.20;94.70;;;;;;4997961;28;20050;-69
2023/06/05 02:28:48;;;;;;;2.58;1.23;;;15.10;95.10;;;;;;4997957;28;20022;-69
2023/06/05 02:31:15;;;;;;;4.75;1.27;;;15.10;95.20;;;;;;4998868;28;20038;-69
2023/06/05 02:33:41;;;;;;;2.97;1.13;;;14.80;95.50;;;;;;4997911;28;20026;-69
2023/06/05 02:36:07;;;;;;;2.55;1.30;;;14.80;96.50;;;;;;4997916;28;20069;-69
2023/06/05 02:38:33;;;;;;;3.35;1.30;;;15.00;96.20;;;;;;4997646;28;20065;-69
2023/06/05 02:40:59;;;;;;;2.17;1.30;;;15.10;96.40;;;;;;4997870;28;20023;-69
2023/06/05 02:43:25;;;;;;;2.53;1.35;;;15.00;96.10;;;;;;4997561;28;20030;-69
2023/06/05 02:45:50;;;;;;;2.22;1.30;;;15.00;96.30;;;;;;4997465;28;20053;-69
2023/06/05 02:48:16;;;;;;;2.17;1.27;;;14.90;96.60;;;;;;4997948;28;20029;-69
2023/06/05 02:50:41;;;;;;;3.05;1.30;;;14.80;96.70;;;;;;4998318;28;20027;-69
2023/06/05 02:53:07;;;;;;;9.13;1.45;;;14.80;97.50;;;;;;4997428;28;20098;-69
2023/06/05 02:55:33;;;;;;;3.42;1.33;;;14.80;97.30;;;;;;4997343;28;20028;-69
2023/06/05 02:57:58;;;;;;;1.58;1.27;;;14.80;97.50;;;;;;4998398;28;20022;-69
2023/06/05 03:00:25;;;;;;;5.63;1.50;;;14.80;97.40;;;;;;4997342;28;20026;-69
2023/06/05 03:02:51;;;;;;;7.35;1.73;;;14.80;97.70;;;;;;4998269;28;20150;-69
2023/06/05 03:05:24;;;;;;;3.70;1.38;;;14.70;97.90;;;;;;4997095;28;20030;-69
2023/06/05 03:07:52;;;;;;;4.03;2.00;;;14.70;98.30;;;;;;4998259;28;20014;-69
2023/06/05 03:10:19;;;;;;;5.80;1.45;;;14.60;99.20;;;;;;4997089;28;20022;-69
2023/06/05 03:12:44;;;;;;;5.45;1.67;;;14.40;99.30;;;;;;4997414;28;20026;-69
2023/06/05 03:15:11;;;;;;;7.03;1.52;;;14.40;99.30;;;;;;4997539;28;20037;-69
2023/06/05 03:17:37;;;;;;;4.07;1.38;;;14.50;99.60;;;;;;4997940;28;20022;-69
2023/06/05 03:20:03;;;;;;;2.05;1.40;;;14.40;99.90;;;;;;4997060;28;20126;-69
2023/06/05 03:22:30;;;;;;;3.20;1.27;;;14.30;99.90;;;;;;4997229;28;20030;-69
2023/06/05 03:24:55;;;;;;;2.92;1.20;;;14.20;99.90;;;;;;4998034;28;20018;-69
2023/06/05 03:27:21;;;;;;;2.10;1.30;;;14.30;99.90;;;;;;4996891;28;20049;-69
2023/06/05 03:29:47;;;;;;;2.58;1.38;;;14.40;99.90;;;;;;4997768;28;20101;-69
2023/06/05 03:32:12;;;;;;;3.50;1.70;;;14.40;99.90;;;;;;4997524;28;20033;-69
2023/06/05 03:34:38;;;;;;;3.97;1.42;;;14.30;99.90;;;;;;4996149;28;20030;-69
2023/06/05 03:37:04;;;;;;;1.50;1.17;;;14.40;99.90;;;;;;4996872;28;20030;-69
2023/06/05 03:39:29;;;;;;;2.55;1.35;;;14.40;99.90;;;;;;4996747;28;20030;-69
2023/06/05 03:41:55;;;;;;;1.80;1.10;;;14.30;99.90;;;;;;4996718;28;20061;-69
2023/06/05 03:44:22;;;;;;;2.35;1.40;;;14.30;99.90;;;;;;4996612;28;20077;-69
2023/06/05 03:46:48;;;;;;;2.28;1.50;;;14.20;99.90;;;;;;4996778;28;20027;-69
2023/06/05 03:49:14;;;;;;;2.83;1.45;;;14.30;99.90;;;;;;4996780;28;20023;-69
2023/06/05 03:51:39;;;;;;;3.33;1.55;;;14.40;99.90;;;;;;4996722;28;20117;-69
2023/06/05 03:54:05;;;;;;;1.98;1.20;;;14.40;99.90;;;;;;4996782;28;20124;-69
2023/06/05 03:56:34;;;;;;;3.10;1.38;;;14.40;99.90;;;;;;4996964;28;20048;-69
2023/06/05 03:59:09;;;;;;;3.80;1.30;;;14.40;99.90;;;;;;4996680;28;20026;-70
2023/06/05 04:01:38;;;;;;;3.75;1.40;;;14.40;99.90;;;;;;4996588;28;20081;-70
2023/06/05 04:04:05;;;;;;;2.78;1.20;;;14.50;99.90;;;;;;4997414;28;20023;-70
2023/06/05 04:06:32;;;;;;;3.90;1.33;;;14.50;99.90;;;;;;4996669;28;20025;-70
2023/06/05 04:08:58;;;;;;;3.92;1.40;;;14.50;99.90;;;;;;4997732;28;20018;-70
2023/06/05 04:11:26;;;;;;;2.95;1.35;;;14.50;99.90;;;;;;4996862;28;20027;-70
2023/06/05 04:13:55;;;;;;;4.75;1.77;;;14.50;99.90;;;;;;4996441;28;20043;-70
2023/06/05 04:16:20;;;;;;;2.95;1.88;;;14.50;99.90;;;;;;4996434;28;20037;-70
2023/06/05 04:18:46;;;;;;;3.80;1.40;;;14.40;99.90;;;;;;4997616;28;20113;-70
2023/06/05 04:21:11;;;;;;;3.30;1.30;;;14.30;99.90;;;;;;4996297;28;20019;-70
2023/06/05 04:23:37;;;;;;;2.40;1.40;;;14.30;99.90;;;;;;4996823;28;20023;-70
2023/06/05 04:26:02;;;;;;;1.92;1.38;;;14.40;99.90;;;;;;4996391;28;20027;-70
2023/06/05 04:28:29;;;;;;;2.78;1.23;;;14.40;99.90;;;;;;4996305;28;20023;-70
2023/06/05 04:30:55;;;;;;;8.27;1.30;;;14.50;99.90;;;;;;4996296;28;20022;-70
2023/06/05 04:33:21;;;;;;;2.03;1.25;;;14.50;99.90;;;;;;4996282;28;20023;-70
2023/06/05 04:35:47;;;;;;;2.65;1.52;;;14.50;99.90;;;;;;4996719;28;20039;-70
2023/06/05 04:38:12;;;;;;;8.60;1.38;;;14.50;99.90;;;;;;4996403;28;20029;-70
2023/06/05 04:40:38;;;;;;;2.92;1.40;;;14.60;99.90;;;;;;4996113;28;20028;-70
2023/06/05 04:43:04;;;;;;;1.98;1.40;;;14.60;99.90;;;;;;4996392;28;20033;-70
2023/06/05 04:45:29;;;;;;;2.72;1.27;;;14.70;99.90;;;;;;4998633;28;20022;-70
2023/06/05 04:47:55;;;;;;;7.95;1.38;;;14.70;99.90;;;;;;5000628;28;20033;-70
2023/06/05 04:50:26;;;;;;;5.93;1.35;;;14.80;99.90;;;;;;5000440;28;20026;-70
2023/06/05 04:52:55;;;;;;;3.47;1.50;;;14.80;99.90;;;;;;5000960;28;20027;-70
2023/06/05 04:55:20;;;;;;;2.38;1.50;;;14.90;99.90;;;;;;4999390;28;20026;-70
2023/06/05 04:57:48;;;;;;;2.38;1.38;;;14.90;99.90;;;;;;4999543;28;20041;-70
2023/06/05 05:00:17;;;;;;;4.57;1.58;;;14.90;99.90;;;;;;5000407;28;20026;-70
2023/06/05 05:02:43;;;;;;;2.22;1.20;;;15.00;99.90;;;;;;5000241;28;20029;-70
2023/06/05 05:05:08;;;;;;;2.40;1.40;;;15.00;99.90;;;;;;4999495;28;20022;-70
2023/06/05 05:07:35;;;;;;;3.22;1.45;;;15.00;99.90;;;;;;4999208;28;20057;-70
2023/06/05 05:10:01;;;;;;;4.53;1.35;;;15.00;99.90;;;;;;4999331;28;20034;-70
2023/06/05 05:12:26;;;;;;;3.33;1.38;;;14.90;99.90;;;;;;4999972;28;20026;-70
2023/06/05 05:14:53;;;;;;;3.58;1.02;;;15.00;99.90;;;;;;5002763;28;20101;-69
2023/06/05 05:17:19;;;;;;;4.45;1.48;;;15.10;99.90;;;;;;5000066;28;20049;-69
2023/06/05 05:19:45;;;;;;;8.45;1.55;;;15.10;99.90;;;;;;5000067;28;20026;-70
2023/06/05 05:22:10;;;;;;;2.10;1.55;;;15.10;99.90;;;;;;4999192;28;20034;-69
2023/06/05 05:24:36;;;;;;;3.28;1.05;;;15.10;99.90;;;;;;4999503;28;20025;-69
2023/06/05 05:27:02;;;;;;;3.30;1.40;;;15.10;99.90;;;;;;4998907;28;20030;-69
2023/06/05 05:29:28;;;;;;;5.50;1.60;;;15.10;99.90;;;;;;4999296;28;20026;-69
2023/06/05 05:31:53;;;;;;;1.52;1.02;;;15.10;99.90;;;;;;4999343;28;20026;-69
2023/06/05 05:34:20;;;;;;;3.00;1.27;;;15.00;99.90;;;;;;4998900;28;20030;-70
2023/06/05 05:36:46;;;;;;;2.35;1.27;;;15.10;99.90;;;;;;5000114;28;20057;-70
2023/06/05 05:39:11;;;;;;;3.15;1.40;;;14.90;99.90;;;;;;4998720;28;20033;-70
2023/06/05 05:41:37;;;;;;;8.02;2.30;;;15.10;99.90;;;;;;4999065;28;20076;-70
2023/06/05 05:44:02;;;;;;;5.15;1.40;;;15.00;99.90;;;;;;4998801;28;20022;-70
2023/06/05 05:46:28;;;;;;;2.45;1.33;;;15.00;99.90;;;;;;4998686;28;20019;-70
2023/06/05 05:48:54;;;;;;;5.75;1.67;;;15.10;99.90;;;;;;4999612;28;20030;-70
2023/06/05 05:51:21;;;;;;;3.33;1.40;;;15.10;99.90;;;;;;4998584;28;20027;-70
2023/06/05 05:53:46;;;;;;;3.10;1.50;;;15.30;99.90;;;;;;4998399;28;20033;-70
2023/06/05 05:56:12;;;;;;;2.80;1.52;;;15.40;99.90;;;;;;4998602;28;20027;-70
2023/06/05 05:58:37;;;;;;;5.68;1.63;;;15.50;99.90;;;;;;4998831;28;20022;-70
2023/06/05 06:01:03;;;;;;;4.38;1.77;;;15.40;99.90;;;;;;4998490;28;20034;-70
2023/06/05 06:03:29;;;;;;;3.08;1.42;;;15.40;99.90;;;;;;4998739;28;20081;-70
2023/06/05 06:05:56;;;;;;;11.05;1.77;;;15.40;99.90;;;;;;4998188;28;20022;-70
2023/06/05 06:08:22;;;;;;;2.33;1.20;;;15.50;99.90;;;;;;4999213;28;20018;-70
2023/06/05 06:10:47;;;;;;;2.72;1.50;;;15.60;99.90;;;;;;4999043;28;20022;-70
2023/06/05 06:13:13;;;;;;;5.05;1.23;;;15.70;99.90;;;;;;4998316;28;20125;-70
2023/06/05 06:15:39;;;;;;;3.25;2.00;;;15.70;99.90;;;;;;4998218;28;20022;-70
2023/06/05 06:18:05;;;;;;;2.28;1.38;;;15.80;99.90;;;;;;4998060;28;20109;-70
2023/06/05 06:20:33;;;;;;;6.20;1.58;;;15.80;99.90;;;;;;4998177;28;20058;-70
2023/06/05 06:22:58;;;;;;;4.55;1.40;;;15.90;99.90;;;;;;4997961;28;20093;-70
2023/06/05 06:25:28;;;;;;;3.63;1.48;;;16.00;99.90;;;;;;4997839;28;20060;-70
2023/06/05 06:28:03;;;;;;;8.50;1.50;;;16.10;99.90;;;;;;4997787;28;20073;-70
2023/06/05 06:30:28;;;;;;;4.35;1.63;;;16.20;99.90;;;;;;4998219;28;20029;-70
2023/06/05 06:32:57;;;;;;;2.97;1.42;;;16.30;99.90;;;;;;4997894;28;20026;-70
2023/06/05 06:35:27;;;;;;;2.75;1.50;;;16.30;99.90;;;;;;5021693;22;20042;-71
2023/06/05 06:37:57;;;;;;;7.57;1.90;;;16.30;99.90;;;;;;4997707;28;20022;-71
2023/06/05 06:40:23;;;;;;;5.03;1.55;;;16.40;99.90;;;;;;4998395;28;20018;-71
2023/06/05 06:42:49;;;;;;;6.22;1.50;;;16.50;99.90;;;;;;4997730;28;20031;-71
2023/06/05 06:45:15;;;;;;;4.70;1.75;;;16.60;99.90;;;;;;4997888;28;20022;-71
2023/06/05 06:47:41;;;;;;;3.60;1.33;;;16.80;99.90;;;;;;4997836;28;20049;-71
2023/06/05 06:50:07;;;;;;;5.15;2.22;;;16.80;99.90;;;;;;4998466;28;20030;-71
2023/06/05 06:52:32;;;;;;;4.20;1.52;;;16.90;99.90;;;;;;4997793;28;20038;-71
2023/06/05 06:54:58;;;;;;;4.10;1.50;;;17.00;99.90;;;;;;4997686;28;20031;-71
2023/06/05 06:57:23;;;;;;;5.13;1.80;;;17.10;99.90;;;;;;4997487;28;20029;-71
2023/06/05 06:59:49;;;;;;;9.55;1.85;;;17.10;99.90;;;;;;4998378;28;20037;-71
2023/06/05 07:02:19;;;;;;;11.90;1.80;;;17.20;99.90;;;;;;4997236;28;20026;-71
2023/06/05 07:04:45;;;;;;;2.15;1.50;;;17.20;99.90;;;;;;4998246;28;20061;-71
2023/06/05 07:07:12;;;;;;;3.47;1.77;;;17.30;99.90;;;;;;4997408;28;20030;-71
2023/06/05 07:09:39;;;;;;;4.10;1.77;;;17.40;99.90;;;;;;4997434;28;20097;-72
2023/06/05 07:12:05;;;;;;;2.45;1.25;;;17.50;99.90;;;;;;4997347;28;20026;-71
2023/06/05 07:14:35;;;;;;;5.45;1.65;;;17.60;99.90;;;;;;4997373;28;20026;-71
2023/06/05 07:17:01;;;;;;;12.02;1.88;;;17.70;99.90;;;;;;4997006;28;20037;-72
2023/06/05 07:19:28;;;;;;;4.03;2.05;;;17.80;99.90;;;;;;4997096;28;20049;-72
2023/06/05 07:21:56;;;;;;;8.02;2.20;;;17.90;99.90;;;;;;4997073;28;20030;-72
2023/06/05 07:24:24;;;;;;;5.07;1.90;;;18.00;99.90;;;;;;4996841;28;20026;-72
2023/06/05 07:26:51;;;;;;;7.50;2.20;;;18.10;99.90;;;;;;4997092;28;20025;-72
2023/06/05 07:29:17;;;;;;;3.42;1.85;;;18.20;99.90;;;;;;4997902;28;20057;-72
2023/06/05 07:31:43;;;;;;;7.65;2.40;;;18.20;99.90;;;;;;4997032;28;20057;-72
2023/06/05 07:34:08;;;;;;;6.50;1.90;;;18.20;99.90;;;;;;4996583;28;20053;-72
2023/06/05 07:36:36;;;;;;;4.32;1.75;;;18.30;99.90;;;;;;4997933;28;20081;-71
2023/06/05 07:39:02;;;;;;;12.68;2.20;;;18.40;99.90;;;;;;4997264;28;20050;-71
2023/06/05 07:41:27;;;;;;;3.50;1.77;;;18.50;99.90;;;;;;4996930;28;20066;-71
2023/06/05 07:43:53;;;;;;;4.78;1.60;;;18.50;99.30;;;;;;4996687;28;20102;-71
2023/06/05 07:46:18;;;;;;;6.90;2.10;;;18.60;99.90;;;;;;4996920;28;20034;-71
2023/06/05 07:48:44;;;;;;;3.15;1.70;;;18.60;99.90;;;;;;4996643;28;20094;-71
2023/06/05 07:51:10;;;;;;;6.43;2.28;;;18.60;99.90;;;;;;4996597;28;20026;-71
2023/06/05 07:53:35;;;;;;;16.75;2.47;;;18.80;99.40;;;;;;4996623;28;20026;-71
2023/06/05 07:56:01;;;;;;;13.88;2.63;;;18.80;99.30;;;;;;4996785;28;20125;-71
2023/06/05 07:58:27;;;;;;;5.07;1.70;;;18.90;99.90;;;;;;4996685;28;20053;-71
2023/06/05 08:00:53;;;;;;;8.20;2.17;;;19.00;99.90;;;;;;4996631;28;20026;-71
2023/06/05 08:03:19;;;;;;;4.75;2.00;;;19.00;99.90;;;;;;4996584;28;20069;-71
2023/06/05 08:05:51;;;;;;;5.18;2.25;;;19.10;99.90;;;;;;4997447;28;20022;-70
2023/06/05 08:08:17;;;;;;;5.65;1.70;;;19.30;99.80;;;;;;4997370;28;20030;-70
2023/06/05 08:10:43;;;;;;;3.63;1.42;;;19.30;99.70;;;;;;4997426;28;20021;-70
2023/06/05 08:13:10;;;;;;;8.52;2.35;;;19.40;99.90;;;;;;4996584;28;20037;-70
2023/06/05 08:15:36;;;;;;;3.75;1.42;;;19.40;99.40;;;;;;4996726;28;20050;-71
2023/06/05 08:18:02;;;;;;;7.32;1.73;;;19.50;99.70;;;;;;4997272;28;20085;-71
2023/06/05 08:20:28;;;;;;;12.00;1.80;;;19.60;99.50;;;;;;4999177;28;20045;-71
2023/06/05 08:22:57;;;;;;;5.15;1.88;;;19.70;99.20;;;;;;5000373;28;20026;-70
2023/06/05 08:25:26;;;;;;;6.05;2.08;;;19.70;99.80;;;;;;5000417;28;20026;-70
2023/06/05 08:27:52;;;;;;;9.23;1.77;;;19.80;99.90;;;;;;5000548;28;20109;-71
2023/06/05 08:30:18;;;;;;;5.65;1.65;;;19.90;99.90;;;;;;5000201;28;20141;-71
2023/06/05 08:32:44;;;;;;;8.30;2.63;;;20.10;99.90;;;;;;5000075;28;20033;-71
2023/06/05 08:35:10;;;;;;;3.58;1.85;;;20.20;99.90;;;;;;4999985;28;20073;-71
2023/06/05 08:37:36;;;;;;;3.28;1.92;;;20.30;98.90;;;;;;5000074;28;20028;-71
2023/06/05 08:40:06;;;;;;;6.22;1.63;;;20.30;99.30;;;;;;5000788;28;20022;-71
2023/06/05 08:42:32;;;;;;;9.45;1.77;;;20.40;99.20;;;;;;5000727;28;20129;-71
2023/06/05 08:44:58;;;;;;;3.75;1.60;;;20.60;99.20;;;;;;4999646;28;20046;-71
2023/06/05 08:47:28;;;;;;;7.93;1.73;;;20.70;98.40;;;;;;4999920;28;20091;-71
2023/06/05 08:49:54;;;;;;;3.35;1.83;;;20.90;97.30;;;;;;4999849;28;20064;-71
2023/06/05 08:52:23;;;;;;;6.28;2.08;;;21.20;97.00;;;;;;4999996;28;20027;-71
2023/06/05 08:54:49;;;;;;;4.43;1.58;;;21.30;96.70;;;;;;5000366;28;20031;-71
2023/06/05 08:57:15;;;;;;;3.88;1.67;;;21.40;96.20;;;;;;4999906;28;20034;-71
2023/06/05 08:59:41;;;;;;;5.63;1.70;;;21.50;95.90;;;;;;5000419;28;20031;-71
2023/06/05 09:02:11;;;;;;;11.63;2.20;;;21.50;95.90;;;;;;4999632;28;20057;-71
2023/06/05 09:04:39;;;;;;;8.20;1.60;;;21.60;95.70;;;;;;4999490;28;20022;-71
2023/06/05 09:07:06;;;;;;;9.60;1.63;;;21.90;96.00;;;;;;5000189;28;20027;-71
2023/06/05 09:09:33;;;;;;;4.97;1.85;;;22.10;92.40;;;;;;4999808;28;20080;-71
2023/06/05 09:12:06;;;;;;;2.75;1.40;;;22.20;91.50;;;;;;5000346;28;20037;-70
2023/06/05 09:14:32;;;;;;;2.78;1.65;;;22.50;91.40;;;;;;4999873;28;20027;-71
2023/06/05 09:17:00;;;;;;;4.75;1.20;;;22.70;92.00;;;;;;4999936;28;20033;-71
2023/06/05 09:19:39;;;;;;;4.22;1.67;;;22.60;89.80;;;;;;4999848;28;20026;-72
2023/06/05 09:22:07;;;;;;;5.53;1.70;;;22.50;91.00;;;;;;4999994;28;20129;-72
2023/06/05 09:24:32;;;;;;;4.53;1.63;;;22.60;88.60;;;;;;4999293;28;20023;-72
2023/06/05 09:27:03;;;;;;;2.05;1.30;;;22.90;88.50;;;;;;4999243;28;20023;-72
2023/06/05 09:29:33;;;;;;;3.78;1.60;;;23.00;89.00;;;;;;4999074;28;20027;-72
2023/06/05 09:32:01;;;;;;;1.90;1.53;;;23.40;86.30;;;;;;4998085;28;20034;-72
2023/06/05 09:34:28;;;;;;;11.73;1.75;;;23.40;84.10;;;;;;4999015;28;20030;-72
2023/06/05 09:36:55;;;;;;;3.10;1.40;;;23.70;84.10;;;;;;4999577;28;20089;-72
2023/06/05 09:39:21;;;;;;;1.80;1.20;;;23.90;85.50;;;;;;4999672;28;20030;-72
2023/06/05 09:41:51;;;;;;;4.32;1.40;;;24.40;80.40;;;;;;4998976;28;20030;-72
2023/06/05 09:44:17;;;;;;;4.28;1.42;;;24.70;76.50;;;;;;4999077;28;20022;-72
2023/06/05 09:47:05;;;;;;;4.70;1.77;;;24.80;78.60;;;;;;4999022;28;20018;-72
2023/06/05 09:49:31;;;;;;;4.60;1.52;;;24.50;78.10;;;;;;4999417;28;20023;-71
2023/06/05 09:52:00;;;;;;;3.50;1.70;;;24.40;77.70;;;;;;4999450;28;20030;-72
2023/06/05 09:54:27;;;;;;;3.97;1.70;;;24.70;75.30;;;;;;4999181;28;20031;-72
2023/06/05 09:56:57;;;;;;;3.22;1.40;;;24.80;74.00;;;;;;4999424;28;20109;-71
2023/06/05 09:59:31;;;;;;;2.72;1.20;;;25.00;71.60;;;;;;4999435;28;20050;-71
2023/06/05 10:02:06;;;;;;;5.22;1.67;;;24.90;73.90;;;;;;4999221;28;20031;-71
2023/06/05 10:04:46;;;;;;;3.35;1.25;;;25.20;73.10;;;;;;4999459;28;20022;-72
2023/06/05 10:07:13;;;;;;;4.13;1.65;;;24.90;72.60;;;;;;4999077;28;20030;-71
2023/06/05 10:09:41;;;;;;;4.30;1.75;;;25.20;73.50;;;;;;4998649;28;20080;-72
2023/06/05 10:12:09;;;;;;;3.60;1.48;;;25.40;73.60;;;;;;4998255;28;20030;-71
2023/06/05 10:14:36;;;;;;;5.93;2.72;;;25.20;69.80;;;;;;4998848;28;20049;-72
2023/06/05 10:17:02;;;;;;;2.13;1.67;;;25.30;70.80;;;;;;4998573;28;20117;-72
2023/06/05 10:19:29;;;;;;;5.13;1.70;;;25.50;69.50;;;;;;4998613;28;20030;-72
2023/06/05 10:21:55;;;;;;;5.20;1.77;;;25.50;66.80;;;;;;4998985;28;20027;-72
2023/06/05 10:24:45;;;;;;;2.58;1.52;;;25.70;67.20;;;;;;4998666;28;20042;-72
2023/06/05 10:27:38;;;;;;;3.75;1.60;;;26.00;66.50;;;;;;4993111;28;20069;-72
2023/06/05 10:30:34;;;;;;;1.70;1.27;;;26.00;65.40;;;;;;4999039;28;20018;-72
2023/06/05 10:33:33;;;;;;;4.68;1.90;;;26.20;65.40;;;;;;4999106;28;20034;-72
2023/06/05 10:36:27;;;;;;;7.35;1.55;;;26.40;63.70;;;;;;4997987;28;20034;-72
2023/06/05 10:38:53;;;;;;;4.15;1.70;;;26.30;64.50;;;;;;4997856;28;20025;-72
2023/06/05 10:41:19;;;;;;;6.40;1.75;;;26.50;66.30;;;;;;4997977;28;20033;-71
2023/06/05 10:43:49;;;;;;;2.78;1.52;;;26.80;64.80;;;;;;4997422;28;20026;-71
2023/06/05 10:46:31;;;;;;;1.53;1.40;;;26.70;63.90;;;;;;4998462;28;20028;-71
2023/06/05 10:49:19;;;;;;;2.60;1.50;;;26.80;60.00;;;;;;4998061;28;20022;-71
2023/06/05 10:51:46;;;;;;;6.53;1.92;;;27.00;63.80;;;;;;4997989;28;20026;-71
2023/06/05 10:54:32;;;;;;;4.68;1.63;;;27.30;63.20;;;;;;4997456;28;20124;-71
2023/06/05 10:57:00;;;;;;;4.00;1.75;;;27.60;62.00;;;;;;4990804;28;20042;-72
2023/06/05 10:59:30;;;;;;;7.53;1.55;;;27.70;59.70;;;;;;4997728;28;20168;-72
2023/06/05 11:02:05;;;;;;;3.63;1.67;;;27.80;57.90;;;;;;4997793;28;20030;-72
2023/06/05 11:04:49;;;;;;;9.90;2.00;;;27.70;57.60;;;;;;4997616;28;20121;-72
2023/06/05 11:07:24;;;;;;;4.80;1.65;;;27.50;60.00;;;;;;4997687;28;20029;-71
2023/06/05 11:10:05;;;;;;;2.83;2.00;;;27.80;58.10;;;;;;4998050;28;20026;-71
2023/06/05 11:12:42;;;;;;;2.55;1.73;;;27.80;58.30;;;;;;4998123;28;20060;-71
2023/06/05 11:15:09;;;;;;;2.95;1.67;;;28.20;56.00;;;;;;4998319;28;20085;-70
2023/06/05 11:17:46;;;;;;;2.60;1.45;;;28.10;56.50;;;;;;4998171;28;20022;-70
2023/06/05 11:20:23;;;;;;;2.35;1.80;;;28.10;57.60;;;;;;4997073;28;20034;-70
2023/06/05 11:22:55;;;;;;;4.82;1.83;;;28.20;55.30;;;;;;4997775;28;20026;-70
2023/06/05 11:25:21;;;;;;;2.78;1.70;;;28.40;56.80;;;;;;4996767;28;20121;-70
2023/06/05 11:28:05;;;;;;;13.68;2.17;;;28.10;56.80;;;;;;4997215;28;20030;-70
2023/06/05 11:30:32;;;;;;;5.93;1.88;;;28.20;56.00;;;;;;4997036;28;20022;-70
2023/06/05 11:33:08;;;;;;;5.65;2.00;;;28.10;58.90;;;;;;4997565;28;20045;-70
2023/06/05 11:35:38;;;;;;;3.55;1.73;;;28.00;58.50;;;;;;4997082;28;20108;-70
2023/06/05 11:38:11;;;;;;;4.35;2.03;;;27.80;58.20;;;;;;4996873;28;20026;-70
2023/06/05 11:40:38;;;;;;;6.93;1.73;;;27.60;58.80;;;;;;4997685;28;20026;-70
2023/06/05 11:43:05;;;;;;;4.32;1.67;;;27.80;59.50;;;;;;4997131;28;20096;-70
2023/06/05 11:45:32;;;;;;;4.60;1.67;;;27.80;58.70;;;;;;4997515;28;20026;-70
2023/06/05 11:48:09;;;;;;;2.15;1.70;;;28.20;58.80;;;;;;4996723;28;20053;-71
2023/06/05 11:50:36;;;;;;;6.93;2.30;;;28.50;59.00;;;;;;4996991;28;20022;-70
2023/06/05 11:53:04;;;;;;;7.78;1.80;;;28.40;57.50;;;;;;4996934;28;20033;-70
2023/06/05 11:55:43;;;;;;;5.30;2.42;;;28.60;58.60;;;;;;4999742;28;20117;-70
2023/06/05 11:58:09;;;;;;;8.40;1.83;;;28.90;58.70;;;;;;5001323;28;20056;-70
2023/06/05 12:00:35;;;;;;;4.82;2.17;;;29.30;58.50;;;;;;5001374;28;20022;-70
2023/06/05 12:03:00;;;;;;;3.22;2.03;;;29.20;56.40;;;;;;5000900;28;20023;-70
2023/06/05 12:05:26;;;;;;;2.95;1.52;;;29.30;58.00;;;;;;5001516;28;20018;-71
2023/06/05 12:07:51;;;;;;;9.15;1.80;;;29.00;58.20;;;;;;5000874;28;20030;-71
2023/06/05 12:10:18;;;;;;;2.67;1.75;;;29.40;57.90;;;;;;5000472;28;20026;-70
2023/06/05 12:12:53;;;;;;;2.97;1.90;;;29.40;55.40;;;;;;5001365;28;20022;-70
2023/06/05 12:15:20;;;;;;;3.45;1.60;;;29.00;54.60;;;;;;5000959;28;20094;-71
2023/06/05 12:17:54;;;;;;;3.67;1.80;;;28.90;56.30;;;;;;5000577;28;20026;-70
2023/06/05 12:20:21;;;;;;;2.40;1.70;;;29.10;55.40;;;;;;5000526;28;20026;-71
2023/06/05 12:22:47;;;;;;;3.75;1.80;;;29.40;56.90;;;;;;5000516;28;20022;-72
2023/06/05 12:25:19;;;;;;;3.92;1.90;;;29.40;55.30;;;;;;5000487;28;20022;-71
2023/06/05 12:27:45;;;;;;;5.30;1.90;;;29.70;57.80;;;;;;5000264;28;20114;-71
2023/06/05 12:30:11;;;;;;;2.33;1.60;;;29.50;55.80;;;;;;5000062;28;20116;-71
2023/06/05 12:32:39;;;;;;;3.03;1.48;;;29.70;54.10;;;;;;5000375;28;20037;-71
2023/06/05 12:35:05;;;;;;;2.13;1.63;;;29.20;55.50;;;;;;5024070;22;20031;-68
2023/06/05 12:37:32;;;;;;;2.45;1.70;;;29.10;54.70;;;;;;5001343;28;20125;-69
2023/06/05 12:39:58;;;;;;;2.92;2.05;;;28.80;54.10;;;;;;5000010;28;20022;-69
2023/06/05 12:42:24;;;;;;;6.18;2.10;;;28.70;58.20;;;;;;4999778;28;20033;-67
2023/06/05 12:44:50;;;;;;;1.75;1.60;;;28.70;54.30;;;;;;5000726;28;20129;-68
2023/06/05 12:47:16;;;;;;;2.88;1.77;;;29.00;55.70;;;;;;4999870;28;20092;-67
2023/06/05 12:49:42;;;;;;;3.75;1.75;;;28.70;54.10;;;;;;4999707;28;20077;-68